< < Back
Terminal Aerodrome Forecast


Current Version              Previous Versions:   1  2  3  4  5  6  7  8  9  

Terminal Aerodrome Forecast

651
FTUS42 KTAE 021400 AAD
TAFTLH
TAF AMD
KTLH 021421Z 0214/0312 00000KT 5SM BR SCT002 BKN006
     FM021600 23005KT P6SM BKN025 OVC050
     FM030000 17002KT P6SM OVC050
     FM030600 00000KT 5SM BR OVC100
     FM030900 00000KT 1/4SM FG OVC007=



Latest METAR

524
SAUS80 KWBC 030300 RRD
MTRTLH
METAR KTLH 030253Z 00000KT 10SM BKN028 OVC250 20/17 A3025 RMK AO2 SLP243
T02000167 51007 $


USA.gov is the U.S. government's official web portal to all federal, state and local government web resources and services.